Time;durP1;ratioP1;P1;durP2;ratioP2;P2;SDS_P1;SDS_P2;PMS_P1;PMS_P2;Temp;Humidity;BMP_temperature;BMP_pressure;BME280_temperature;BME280_humidity;BME280_pressure;Samples;Min_cycle;Max_cycle;Signal;HPM_P1;HPM_P2
2021/05/03 00:00:28;;;;;;;2.70;2.50;;;;;;;10.23;61.35;95946.89;1713459;82;21167;-61
2021/05/03 00:02:56;;;;;;;2.83;2.40;;;;;;;10.29;61.77;95946.41;1709659;82;21182;-59
2021/05/03 00:05:31;;;;;;;3.17;2.98;;;;;;;10.37;61.96;95952.32;1704023;83;21179;-60
2021/05/03 00:07:59;;;;;;;4.00;2.77;;;;;;;10.45;62.07;95957.72;1696905;83;21409;-60
2021/05/03 00:10:27;;;;;;;3.08;2.40;;;;;;;10.54;62.32;95963.92;1704844;83;21619;-60
2021/05/03 00:12:55;;;;;;;2.90;2.60;;;;;;;10.63;62.06;95958.83;1704474;84;21068;-60
2021/05/03 00:15:23;;;;;;;3.02;2.83;;;;;;;10.72;61.60;95965.52;1700232;83;21168;-61
2021/05/03 00:17:51;;;;;;;3.95;3.20;;;;;;;10.77;61.67;95964.20;1698928;83;21564;-61
2021/05/03 00:20:19;;;;;;;3.15;2.80;;;;;;;10.86;61.37;95969.11;1698745;82;21568;-61
2021/05/03 00:22:48;;;;;;;2.98;2.47;;;;;;;10.94;61.59;95971.09;1710603;82;21162;-61
2021/05/03 00:25:17;;;;;;;;;;;;;;;10.97;61.36;95979.45;1705642;84;21677;-61
2021/05/03 00:27:44;;;;;;;2.87;2.67;;;;;;;11.00;61.18;95977.91;1701929;82;20838;-61
2021/05/03 00:30:15;;;;;;;3.92;2.72;;;;;;;11.02;60.66;95982.97;1702015;83;21060;-61
2021/05/03 00:32:44;;;;;;;3.05;2.50;;;;;;;11.07;60.77;95986.00;1703087;83;21396;-61
2021/05/03 00:35:13;;;;;;;3.05;2.80;;;;;;;11.10;59.72;95983.16;1699727;83;21620;-61
2021/05/03 00:37:40;;;;;;;5.83;2.80;;;;;;;11.12;59.18;95986.45;1706526;83;21147;-60
2021/05/03 00:40:10;;;;;;;3.47;2.80;;;;;;;11.13;59.49;95988.56;1704721;83;21148;-62
2021/05/03 00:42:37;;;;;;;3.10;2.80;;;;;;;11.07;60.01;95992.50;1703046;84;23051;-61
2021/05/03 00:45:09;;;;;;;3.45;3.00;;;;;;;10.93;59.45;95995.39;1695836;84;21215;-61
2021/05/03 00:47:37;;;;;;;3.12;2.72;;;;;;;10.76;59.67;95998.87;1706864;83;21211;-62
2021/05/03 00:50:07;;;;;;;2.80;2.50;;;;;;;10.63;60.08;96004.22;1703410;83;21064;-61
2021/05/03 00:52:34;;;;;;;3.00;2.72;;;;;;;10.64;60.31;96007.63;1702287;83;21092;-62
2021/05/03 00:55:02;;;;;;;3.37;2.83;;;;;;;10.67;60.00;96005.64;1704410;84;21623;-63
2021/05/03 00:57:31;;;;;;;5.50;2.70;;;;;;;10.70;60.18;96007.14;1707355;83;22302;-63
2021/05/03 00:59:59;;;;;;;4.75;2.80;;;;;;;10.73;59.94;96013.39;1681823;84;21159;-62
2021/05/03 01:02:28;;;;;;;2.83;2.62;;;;;;;10.71;60.35;96014.00;1703051;82;21096;-62
2021/05/03 01:04:56;;;;;;;5.53;3.10;;;;;;;10.67;60.53;96026.40;1707520;83;21109;-62
2021/05/03 01:07:24;;;;;;;3.25;2.95;;;;;;;10.68;60.63;96031.92;1708141;83;21501;-63
2021/05/03 01:09:51;;;;;;;3.37;2.80;;;;;;;10.67;60.42;96019.06;1705682;83;21215;-63
2021/05/03 01:12:19;;;;;;;2.90;2.70;;;;;;;10.63;59.95;96022.87;1699384;83;21195;-62
2021/05/03 01:14:47;;;;;;;3.00;2.80;;;;;;;10.59;60.11;96022.30;1676459;84;21143;-62
2021/05/03 01:17:15;;;;;;;3.33;2.87;;;;;;;10.59;60.30;96022.30;1704901;82;21532;-63
2021/05/03 01:19:44;;;;;;;3.15;2.85;;;;;;;10.61;60.26;96029.95;1705687;82;21080;-62
2021/05/03 01:22:12;;;;;;;3.30;3.00;;;;;;;10.62;59.52;96031.10;1701385;82;21524;-62
2021/05/03 01:24:40;;;;;;;3.58;2.95;;;;;;;10.66;60.88;96032.52;1703799;83;21572;-63
2021/05/03 01:27:08;;;;;;;3.10;2.80;;;;;;;10.68;60.71;96029.80;1707392;82;21120;-63
2021/05/03 01:29:36;;;;;;;2.85;2.62;;;;;;;10.71;60.55;96037.34;1700881;83;21155;-63
2021/05/03 01:32:07;;;;;;;4.28;2.70;;;;;;;10.73;60.32;96043.72;1705639;83;21140;-63
2021/05/03 01:34:37;;;;;;;3.47;3.17;;;;;;;10.75;59.87;96041.33;1707139;83;21157;-62
2021/05/03 01:37:05;;;;;;;4.87;3.00;;;;;;;10.77;60.06;96040.76;1698297;83;21269;-62
2021/05/03 01:39:34;;;;;;;2.70;2.50;;;;;;;10.79;59.98;96045.34;1703920;82;21120;-63
2021/05/03 01:42:02;;;;;;;11.22;3.22;;;;;;;10.80;59.97;96042.27;1701167;83;21739;-62
2021/05/03 01:44:29;;;;;;;3.75;2.70;;;;;;;10.80;59.78;96034.48;1706616;83;21579;-61
2021/05/03 01:46:59;;;;;;;9.40;2.55;;;;;;;10.81;59.91;96037.44;1701275;83;21154;-61
2021/05/03 01:49:27;;;;;;;3.10;2.77;;;;;;;10.82;59.58;96039.06;1705436;83;21191;-61
2021/05/03 01:51:54;;;;;;;2.95;2.65;;;;;;;10.82;59.13;96047.70;1701582;82;21084;-60
2021/05/03 01:54:22;;;;;;;3.57;2.43;;;;;;;10.82;59.71;96048.15;1715665;83;21115;-62
2021/05/03 01:56:50;;;;;;;3.92;2.27;;;;;;;10.79;59.61;96045.34;1717078;81;21590;-62
2021/05/03 01:59:18;;;;;;;3.42;2.10;;;;;;;10.77;58.83;96043.80;1722055;83;21173;-61
2021/05/03 02:01:45;;;;;;;2.45;2.25;;;;;;;10.74;58.33;96044.05;1718192;83;21073;-62
2021/05/03 02:04:13;;;;;;;3.98;2.30;;;;;;;10.72;58.24;96048.54;1720380;81;21159;-60
2021/05/03 02:06:41;;;;;;;3.02;2.58;;;;;;;10.69;58.39;96054.81;1719090;81;21159;-60
2021/05/03 02:09:10;;;;;;;2.75;2.30;;;;;;;10.68;58.75;96056.56;1719581;81;21123;-61
2021/05/03 02:11:39;;;;;;;3.08;2.77;;;;;;;10.67;58.73;96067.06;1713548;83;21130;-61
2021/05/03 02:14:09;;;;;;;4.72;3.00;;;;;;;10.64;58.92;96059.52;1722510;81;21107;-61
2021/05/03 02:16:36;;;;;;;;;;;;;;;10.63;59.42;96067.78;1724163;81;21923;-61
2021/05/03 02:19:04;;;;;;;3.22;2.70;;;;;;;10.66;59.74;96075.81;1717962;83;20494;-61
2021/05/03 02:21:32;;;;;;;3.20;2.77;;;;;;;10.64;59.70;96078.98;1723067;83;21052;-60
2021/05/03 02:23:59;;;;;;;4.45;3.05;;;;;;;10.64;59.38;96076.38;1720963;83;21384;-61
2021/05/03 02:26:27;;;;;;;3.10;2.50;;;;;;;10.62;59.95;96079.58;1716363;83;21269;-61
2021/05/03 02:28:55;;;;;;;3.62;2.45;;;;;;;10.57;58.90;96085.13;1723426;81;21074;-61
2021/05/03 02:31:22;;;;;;;2.52;2.33;;;;;;;10.53;58.48;96077.73;1717878;83;21132;-60
2021/05/03 02:33:50;;;;;;;2.70;2.17;;;;;;;10.49;58.59;96072.78;1721863;81;21146;-59
2021/05/03 02:36:19;;;;;;;4.28;2.25;;;;;;;10.49;58.53;96081.86;1718559;83;21389;-59
2021/05/03 02:38:46;;;;;;;2.85;1.90;;;;;;;10.46;58.05;96079.50;1707998;82;21207;-60
2021/05/03 02:41:14;;;;;;;2.62;2.40;;;;;;;10.45;57.98;96086.09;1709410;83;21079;-60
2021/05/03 02:43:42;;;;;;;2.17;1.98;;;;;;;10.45;57.85;96080.91;1697702;83;21129;-59
2021/05/03 02:46:10;;;;;;;2.90;2.35;;;;;;;10.44;57.80;96093.52;1717513;83;21139;-60
2021/05/03 02:48:38;;;;;;;;;;;;;;;10.44;58.07;96098.70;1725667;81;22290;-59
2021/05/03 02:51:07;;;;;;;1.82;1.72;;;;;;;10.43;57.70;96102.27;1698933;83;20515;-59
2021/05/03 02:53:35;;;;;;;2.77;2.10;;;;;;;10.42;57.93;96107.08;1700566;82;21084;-61
2021/05/03 02:56:02;;;;;;;1.85;1.70;;;;;;;10.40;58.18;96110.28;1700884;83;21087;-59
2021/05/03 02:58:31;;;;;;;4.90;2.35;;;;;;;10.41;57.91;96110.61;1702056;83;21169;-62
2021/05/03 03:00:58;;;;;;;125.42;73.12;;;;;;;10.38;57.64;96107.80;1701012;84;22175;-59
2021/05/03 03:03:25;;;;;;;78.72;31.23;;;;;;;10.38;57.43;96113.44;1700939;83;21140;-60
2021/05/03 03:05:53;;;;;;;20.25;9.65;;;;;;;10.43;57.38;96112.64;1670698;84;21675;-59
2021/05/03 03:08:21;;;;;;;7.58;3.62;;;;;;;10.45;56.84;96119.34;1696991;84;21136;-59
2021/05/03 03:10:48;;;;;;;4.15;2.60;;;;;;;10.44;56.72;96122.89;1680546;83;21168;-60
2021/05/03 03:13:16;;;;;;;3.70;2.15;;;;;;;10.43;56.72;96135.50;1682999;83;21536;-59
2021/05/03 03:15:44;;;;;;;3.95;2.40;;;;;;;10.41;56.75;96136.09;1688074;83;21644;-60
2021/05/03 03:18:12;;;;;;;2.17;1.98;;;;;;;10.40;56.93;96140.09;1681484;83;21489;-60
2021/05/03 03:20:39;;;;;;;3.90;1.90;;;;;;;10.38;57.00;96152.34;1698432;84;21595;-59
2021/05/03 03:23:07;;;;;;;1.85;1.50;;;;;;;10.37;56.97;96155.41;1686295;83;21199;-59
2021/05/03 03:25:35;;;;;;;2.02;1.72;;;;;;;10.36;56.86;96159.41;1695921;83;21687;-59
2021/05/03 03:28:03;;;;;;;2.98;2.25;;;;;;;10.35;56.91;96153.41;1681609;83;21211;-59
2021/05/03 03:30:31;;;;;;;1.72;1.62;;;;;;;10.34;56.68;96162.13;1668585;84;21585;-59
2021/05/03 03:32:58;;;;;;;4.67;1.75;;;;;;;10.35;56.65;96165.56;1670602;83;21187;-59
2021/05/03 03:35:28;;;;;;;3.02;1.92;;;;;;;10.33;56.66;96168.72;1664019;84;21136;-59
2021/05/03 03:37:55;;;;;;;2.30;1.70;;;;;;;10.33;56.67;96171.31;1697138;83;21206;-59
2021/05/03 03:40:23;;;;;;;2.42;1.40;;;;;;;10.33;56.58;96179.09;1678655;83;21215;-59
2021/05/03 03:42:51;;;;;;;1.83;1.50;;;;;;;10.33;56.49;96181.69;1691884;83;21128;-60
2021/05/03 03:45:20;;;;;;;;;;;;;;;10.30;56.48;96187.92;1673259;84;21597;-61
2021/05/03 03:47:47;;;;;;;1.90;1.70;;;;;;;10.32;56.59;96197.73;1678857;84;20292;-60
2021/05/03 03:50:15;;;;;;;3.47;1.65;;;;;;;10.29;56.84;96200.52;1686550;83;21423;-60
2021/05/03 03:52:43;;;;;;;1.75;1.60;;;;;;;10.31;57.04;96212.44;1699454;83;21508;-60
2021/05/03 03:55:12;;;;;;;2.05;1.70;;;;;;;10.32;57.36;96219.77;1687156;83;21084;-58
2021/05/03 03:57:41;;;;;;;2.00;1.80;;;;;;;10.34;57.40;96219.66;1691209;84;21624;-60
2021/05/03 04:00:10;;;;;;;2.60;2.00;;;;;;;10.36;57.14;96218.61;1688213;83;21181;-59
2021/05/03 04:02:39;;;;;;;;;;;;;;;10.39;57.25;96228.73;1676278;84;21430;-57
2021/05/03 04:08:18;;;;;;;10.85;6.12;;;;;;;10.44;56.86;96230.53;1715664;82;21576;-60
2021/05/03 04:14:18;;;;;;;5.72;2.30;;;;;;;10.55;56.32;96242.67;1868435;75;28225;-60
2021/05/03 04:21:51;;;;;;;2.50;2.30;;;;;;;10.49;53.61;96248.31;1824146;77;21569;-62
2021/05/03 04:24:25;;;;;;;2.95;2.10;;;;;;;10.47;53.16;96250.20;1835848;77;21081;-61
2021/05/03 04:26:50;;;;;;;2.20;1.92;;;;;;;10.44;52.70;96252.58;1831192;77;21113;-62
2021/05/03 04:29:19;;;;;;;2.17;1.98;;;;;;;10.41;52.44;96261.03;1824762;77;21230;-63
2021/05/03 04:31:47;;;;;;;1.90;1.67;;;;;;;10.37;52.33;96261.74;1839979;77;21171;-61
2021/05/03 04:34:16;;;;;;;2.87;2.05;;;;;;;10.33;52.42;96262.08;1838478;77;21175;-62
2021/05/03 04:36:45;;;;;;;1.92;1.82;;;;;;;10.35;52.45;96266.70;1834875;77;21125;-63
2021/05/03 04:39:12;;;;;;;;;;;;;;;10.38;52.00;96271.63;1844139;77;21109;-63
2021/05/03 04:41:40;;;;;;;2.83;2.17;;;;;;;10.37;51.72;96273.41;1834101;77;20214;-61
2021/05/03 04:44:07;;;;;;;3.20;2.80;;;;;;;10.38;52.21;96275.08;1832567;77;21440;-60
2021/05/03 04:46:35;;;;;;;34.27;22.58;;;;;;;10.45;52.64;96284.04;1835504;77;21053;-60
2021/05/03 04:49:04;;;;;;;6.03;3.60;;;;;;;10.61;52.08;96288.09;1830612;77;21041;-62
2021/05/03 04:51:32;;;;;;;3.65;2.00;;;;;;;10.75;51.57;96285.25;1752724;80;21089;-59
2021/05/03 04:53:59;;;;;;;2.72;2.33;;;;;;;10.78;51.14;96284.21;1828610;77;21117;-62
2021/05/03 04:56:28;;;;;;;2.75;2.05;;;;;;;10.76;50.93;96284.33;1830727;77;22851;-62
2021/05/03 04:58:57;;;;;;;2.35;2.15;;;;;;;10.76;50.93;96284.33;1846335;77;21169;-61
2021/05/03 05:01:24;;;;;;;2.75;2.47;;;;;;;10.79;50.64;96285.39;1824024;77;21065;-60
2021/05/03 05:03:52;;;;;;;3.22;2.52;;;;;;;10.78;50.50;96288.92;1833270;77;21108;-61
2021/05/03 05:06:19;;;;;;;2.42;2.22;;;;;;;10.75;50.58;96295.64;1831544;77;21160;-61
2021/05/03 05:08:47;;;;;;;2.45;1.72;;;;;;;10.77;50.57;96284.69;1833897;77;21192;-61
2021/05/03 05:11:16;;;;;;;2.10;1.90;;;;;;;10.77;50.06;96287.29;1837651;77;21109;-62
2021/05/03 05:13:44;;;;;;;2.40;1.90;;;;;;;10.77;50.06;96285.98;1807197;77;21111;-60
2021/05/03 05:16:11;;;;;;;2.58;2.02;;;;;;;10.82;50.23;96292.10;1840140;77;21033;-61
2021/05/03 05:18:40;;;;;;;2.25;2.05;;;;;;;10.88;50.27;96295.53;1840036;77;21112;-61
2021/05/03 05:21:07;;;;;;;2.15;1.67;;;;;;;10.93;50.01;96296.48;1837885;77;21194;-61
2021/05/03 05:23:35;;;;;;;2.75;2.08;;;;;;;10.94;49.54;96298.15;1843962;77;21093;-61
2021/05/03 05:26:03;;;;;;;2.25;2.05;;;;;;;10.91;49.35;96294.00;1838887;77;21502;-62
2021/05/03 05:28:31;;;;;;;2.20;1.85;;;;;;;10.92;49.54;96304.75;1799451;79;21177;-62
2021/05/03 05:30:58;;;;;;;2.30;2.10;;;;;;;10.93;49.04;96300.38;1766296;80;21199;-61
2021/05/03 05:33:28;;;;;;;4.40;2.35;;;;;;;10.91;49.45;96307.47;1778141;80;21206;-61
2021/05/03 05:35:56;;;;;;;2.42;2.10;;;;;;;10.91;49.41;96300.98;1773186;79;21079;-61
2021/05/03 05:38:24;;;;;;;1.93;1.83;;;;;;;10.90;49.30;96302.72;1759076;80;21137;-61
2021/05/03 05:40:52;;;;;;;4.28;2.25;;;;;;;10.89;49.23;96306.28;1784052;80;21172;-61
2021/05/03 05:43:20;;;;;;;3.57;2.47;;;;;;;10.90;49.55;96310.99;1765913;80;21156;-61
2021/05/03 05:45:48;;;;;;;3.08;2.10;;;;;;;10.97;49.27;96313.46;1782677;80;21215;-62
2021/05/03 05:48:17;;;;;;;2.20;2.00;;;;;;;11.01;49.15;96314.89;1765784;79;24680;-61
2021/05/03 05:50:47;;;;;;;3.20;2.42;;;;;;;11.03;48.88;96316.89;1805719;79;21934;-61
2021/05/03 05:53:15;;;;;;;3.02;2.33;;;;;;;11.09;48.93;96314.31;1805954;77;21569;-61
2021/05/03 05:55:43;;;;;;;2.47;2.27;;;;;;;11.14;48.64;96316.90;1766400;80;21162;-61
2021/05/03 05:58:10;;;;;;;2.12;1.90;;;;;;;11.20;48.40;96313.84;1774812;80;21275;-62
2021/05/03 06:00:38;;;;;;;4.15;2.67;;;;;;;11.28;48.41;96314.52;1754062;80;21664;-61
2021/05/03 06:03:06;;;;;;;3.90;2.87;;;;;;;11.40;48.58;96317.47;1806091;78;21152;-61
2021/05/03 06:05:35;;;;;;;4.40;2.80;;;;;;;11.60;48.16;96312.00;1806379;78;21070;-61
2021/05/03 06:08:04;;;;;;;3.42;2.35;;;;;;;12.06;47.47;96310.13;1804190;78;21069;-62
2021/05/03 06:10:32;;;;;;;2.45;2.25;;;;;;;12.55;46.41;96320.91;1795572;78;21364;-62
2021/05/03 06:13:00;;;;;;;3.08;2.05;;;;;;;12.96;45.55;96314.47;1801648;77;21125;-61
2021/05/03 06:15:28;;;;;;;2.40;2.20;;;;;;;13.24;44.51;96313.78;1842510;77;21103;-60
2021/05/03 06:17:56;;;;;;;3.25;2.70;;;;;;;13.43;44.40;96319.55;1845936;77;21062;-61
2021/05/03 06:20:24;;;;;;;2.80;2.42;;;;;;;13.65;44.11;96320.78;1798311;79;21105;-61
2021/05/03 06:23:03;;;;;;;3.92;2.20;;;;;;;13.83;42.91;96317.86;1843324;77;21186;-61
2021/05/03 06:25:33;;;;;;;2.85;2.17;;;;;;;13.89;42.70;96317.81;1834003;77;21169;-62
2021/05/03 06:28:01;;;;;;;2.10;1.90;;;;;;;14.07;42.00;96322.70;1838997;77;21544;-60
2021/05/03 06:30:29;;;;;;;2.17;1.90;;;;;;;14.22;41.33;96308.76;1837325;77;21113;-61
2021/05/03 06:32:57;;;;;;;2.10;1.90;;;;;;;14.69;40.95;96311.98;1826292;77;21604;-61
2021/05/03 06:35:26;;;;;;;;;;;;;;;15.60;40.14;96316.09;1831283;77;22263;-62
2021/05/03 06:37:54;;;;;;;2.62;2.40;;;;;;;16.91;38.54;96315.17;1838849;77;20243;-61
2021/05/03 06:40:23;;;;;;;2.70;2.22;;;;;;;17.84;36.40;96312.28;1762060;80;21096;-61
2021/05/03 06:42:51;;;;;;;2.67;2.12;;;;;;;18.18;35.56;96320.09;1738429;81;21158;-61
2021/05/03 06:45:21;;;;;;;2.95;2.17;;;;;;;18.19;35.09;96320.42;1772840;79;21157;-61
2021/05/03 06:47:51;;;;;;;2.47;2.02;;;;;;;17.86;35.62;96327.37;1754824;81;22110;-60
2021/05/03 06:50:19;;;;;;;2.10;1.95;;;;;;;17.51;35.70;96327.11;1801500;78;21121;-60
2021/05/03 06:52:48;;;;;;;2.22;1.90;;;;;;;16.54;36.43;96320.61;1801754;78;21157;-60
2021/05/03 06:55:17;;;;;;;3.17;1.98;;;;;;;16.54;36.43;96320.61;1796590;79;21189;-61
2021/05/03 06:57:45;;;;;;;1.95;1.70;;;;;;;16.19;37.34;96320.48;1757446;81;21038;-61
2021/05/03 07:00:16;;;;;;;2.60;2.10;;;;;;;15.96;38.01;96322.72;1762569;79;21190;-61
2021/05/03 07:02:45;;;;;;;2.90;2.60;;;;;;;15.76;38.36;96327.27;1834302;77;21070;-61
2021/05/03 07:05:13;;;;;;;1.95;1.75;;;;;;;15.85;38.19;96319.50;1830804;77;21061;-61
2021/05/03 07:07:40;;;;;;;2.80;2.22;;;;;;;16.26;37.70;96323.81;1765581;79;21120;-61
2021/05/03 07:10:12;;;;;;;3.90;2.35;;;;;;;16.91;36.76;96318.29;1783797;79;21577;-62
2021/05/03 07:12:47;;;;;;;2.02;1.92;;;;;;;17.41;35.66;96336.41;1787964;78;21369;-60
2021/05/03 07:15:17;;;;;;;4.58;1.80;;;;;;;17.51;34.46;96323.17;1834557;77;21687;-62
2021/05/03 07:17:46;;;;;;;3.83;2.30;;;;;;;17.33;34.36;96324.06;1791892;79;21458;-63
2021/05/03 07:20:15;;;;;;;125.85;85.25;;;;;;;16.99;34.61;96324.05;1832579;77;21488;-62
2021/05/03 07:22:43;;;;;;;8.48;6.03;;;;;;;16.58;35.33;96330.28;1834818;77;21152;-64
2021/05/03 07:25:12;;;;;;;6.15;3.12;;;;;;;16.24;35.52;96334.44;1846602;77;21436;-64
2021/05/03 07:27:40;;;;;;;2.77;1.75;;;;;;;15.90;35.91;96329.84;1842811;77;21163;-65
2021/05/03 07:30:11;;;;;;;14.98;2.20;;;;;;;15.59;36.24;96336.69;1833227;77;21184;-62
2021/05/03 07:32:39;;;;;;;3.02;1.60;;;;;;;15.36;36.66;96331.48;1833070;77;21100;-61
2021/05/03 07:37:51;;;;;;;1.70;1.60;;;;;;;15.01;37.21;96337.73;1684914;83;21392;-63
2021/05/03 07:40:18;;;;;;;2.02;1.82;;;;;;;14.78;37.59;96343.77;1705939;81;21095;-61
2021/05/03 07:42:46;;;;;;;5.43;1.57;;;;;;;14.60;37.86;96350.67;1726623;81;21101;-61
2021/05/03 07:45:16;;;;;;;1.72;1.62;;;;;;;14.39;38.45;96362.07;1731529;81;21193;-61
2021/05/03 07:47:44;;;;;;;1.87;1.70;;;;;;;14.33;38.84;96361.31;1670848;84;21186;-63
2021/05/03 07:50:13;;;;;;;1.77;1.67;;;;;;;14.30;38.77;96354.56;1680328;84;21406;-63
2021/05/03 07:52:41;;;;;;;4.53;2.33;;;;;;;14.27;38.65;96357.94;1682200;84;21614;-61
2021/05/03 07:55:12;;;;;;;1.82;1.42;;;;;;;14.18;39.05;96368.23;1692051;83;21180;-60
2021/05/03 07:57:39;;;;;;;2.98;1.72;;;;;;;14.18;38.94;96360.89;1691903;83;21100;-61
2021/05/03 08:00:10;;;;;;;2.02;1.80;;;;;;;14.19;39.42;96367.73;1695208;83;21203;-62
2021/05/03 08:02:38;;;;;;;3.80;2.10;;;;;;;14.28;39.56;96366.94;1692431;83;21361;-61
2021/05/03 08:05:07;;;;;;;1.72;1.62;;;;;;;14.37;39.28;96366.58;1696258;83;21125;-61
2021/05/03 08:07:38;;;;;;;2.02;1.87;;;;;;;14.40;39.29;96370.23;1681484;84;21165;-61
2021/05/03 08:10:09;;;;;;;2.95;1.95;;;;;;;14.45;39.07;96369.33;1692411;83;21071;-61
2021/05/03 08:12:38;;;;;;;2.15;1.95;;;;;;;14.48;39.12;96372.97;1700797;83;21069;-61
2021/05/03 08:15:12;;;;;;;4.50;2.40;;;;;;;14.51;39.30;96377.11;1686576;83;21553;-61
2021/05/03 08:17:46;;;;;;;1.85;1.65;;;;;;;14.61;39.43;96382.36;1694079;83;21161;-61
2021/05/03 08:20:17;;;;;;;2.00;1.80;;;;;;;14.78;38.87;96375.11;1697893;83;21166;-61
2021/05/03 08:22:46;;;;;;;2.22;1.57;;;;;;;14.84;38.83;96371.13;1697170;83;21169;-61
2021/05/03 08:25:14;;;;;;;1.60;1.50;;;;;;;14.79;38.55;96376.77;1700015;83;21578;-61
2021/05/03 08:27:42;;;;;;;3.20;1.62;;;;;;;14.73;38.72;96382.05;1696375;83;21393;-62
2021/05/03 08:30:11;;;;;;;2.95;1.80;;;;;;;14.67;38.57;96383.94;1692418;83;21100;-62
2021/05/03 08:32:41;;;;;;;2.42;1.70;;;;;;;14.54;38.85;96378.14;1698487;83;21094;-62
2021/05/03 08:35:09;;;;;;;2.92;1.87;;;;;;;14.44;38.91;96383.36;1703542;83;21139;-62
2021/05/03 08:37:37;;;;;;;1.82;1.60;;;;;;;14.34;39.25;96389.03;1688947;83;21182;-62
2021/05/03 08:40:06;;;;;;;10.23;1.80;;;;;;;14.21;39.28;96386.72;1687065;83;21482;-61
2021/05/03 08:42:35;;;;;;;2.67;1.35;;;;;;;14.08;39.55;96393.95;1682377;83;21198;-61
2021/05/03 08:45:26;;;;;;;2.60;1.37;;;;;;;13.96;39.87;96398.46;1678233;84;21138;-61
2021/05/03 08:48:03;;;;;;;2.60;1.32;;;;;;;13.90;39.93;96392.02;1741293;81;21056;-61
2021/05/03 08:50:32;;;;;;;2.12;1.70;;;;;;;13.74;40.13;96395.60;1714224;80;21131;-62
2021/05/03 08:52:56;;;;;;;2.72;1.40;;;;;;;13.63;40.90;96401.73;1698133;83;21240;-62
2021/05/03 08:55:23;;;;;;;2.60;1.25;;;;;;;13.48;40.58;96405.17;1705468;82;21180;-62
2021/05/03 08:57:50;;;;;;;4.30;1.42;;;;;;;13.31;40.80;96401.37;1708818;82;21163;-62
2021/05/03 09:00:20;;;;;;;1.50;1.40;;;;;;;13.20;40.89;96401.45;1709833;81;21166;-61
2021/05/03 09:02:48;;;;;;;2.85;2.55;;;;;;;13.10;41.15;96403.18;1708720;81;21116;-61
2021/05/03 09:05:16;;;;;;;1.60;1.50;;;;;;;13.02;41.74;96408.53;1708050;81;21437;-61
2021/05/03 09:07:51;;;;;;;3.35;1.52;;;;;;;12.95;41.83;96402.69;1708296;82;21123;-61
2021/05/03 09:10:21;;;;;;;1.60;1.50;;;;;;;12.84;41.59;96403.56;1708231;82;21239;-61
2021/05/03 09:12:50;;;;;;;7.67;2.05;;;;;;;12.70;42.18;96413.33;1678369;83;21156;-62
2021/05/03 09:15:22;;;;;;;2.08;1.87;;;;;;;12.61;43.24;96416.67;1710320;81;21197;-62
2021/05/03 09:17:51;;;;;;;2.42;2.22;;;;;;;12.55;44.07;96423.70;1707219;81;21374;-62
2021/05/03 09:20:23;;;;;;;2.17;1.92;;;;;;;12.50;44.71;96420.17;1678865;85;21413;-62
2021/05/03 09:23:14;;;;;;;2.35;2.20;;;;;;;12.44;44.57;96414.64;1709580;82;21255;-61
2021/05/03 09:25:48;;;;;;;7.78;2.50;;;;;;;12.34;44.92;96414.55;1702975;82;21371;-62
2021/05/03 09:28:30;;;;;;;2.40;2.20;;;;;;;12.27;45.43;96423.33;1704898;82;21080;-63
2021/05/03 09:31:00;;;;;;;2.50;2.30;;;;;;;12.20;45.89;96434.33;1710406;82;21604;-62
2021/05/03 09:33:41;;;;;;;5.22;2.47;;;;;;;12.10;46.29;96436.35;1704688;82;28045;-60
2021/05/03 09:36:10;;;;;;;2.10;1.90;;;;;;;12.01;46.93;96440.18;1708497;82;21237;-62
2021/05/03 09:38:45;;;;;;;2.83;2.30;;;;;;;11.90;46.94;96439.19;1680408;84;21183;-62
2021/05/03 09:41:26;;;;;;;2.55;2.35;;;;;;;11.84;47.28;96438.84;1706094;82;21101;-62
2021/05/03 09:44:08;;;;;;;3.65;2.20;;;;;;;11.83;47.87;96441.93;1708271;82;21303;-61
2021/05/03 09:46:45;;;;;;;2.50;2.30;;;;;;;11.87;47.75;96440.73;1685239;84;21183;-61
2021/05/03 09:49:20;;;;;;;1.92;1.80;;;;;;;11.91;48.10;96443.48;1712339;83;21092;-61
2021/05/03 09:51:56;;;;;;;2.42;2.22;;;;;;;11.99;47.83;96442.05;1710896;82;21583;-60
2021/05/03 09:54:27;;;;;;;2.42;2.22;;;;;;;12.03;47.89;96444.78;1711285;82;21171;-61
2021/05/03 09:57:09;;;;;;;2.10;1.90;;;;;;;12.12;47.91;96441.43;1712461;81;21202;-61
2021/05/03 09:59:44;;;;;;;1.62;1.50;;;;;;;12.31;47.81;96441.63;1713152;82;21230;-61
2021/05/03 10:02:27;;;;;;;1.70;1.60;;;;;;;12.56;47.33;96431.84;1709621;82;21084;-62
2021/05/03 10:05:19;;;;;;;2.42;1.80;;;;;;;12.92;46.50;96425.06;1712272;82;21520;-62
2021/05/03 10:07:52;;;;;;;4.97;1.92;;;;;;;13.36;45.88;96433.10;1685230;84;21074;-62
2021/05/03 10:10:25;;;;;;;2.25;2.05;;;;;;;13.75;45.05;96437.19;1711934;82;21333;-61
2021/05/03 10:12:52;;;;;;;2.08;1.95;;;;;;;14.06;44.30;96429.78;1713492;82;21088;-61
2021/05/03 10:15:20;;;;;;;3.67;2.08;;;;;;;14.31;44.29;96433.70;1712215;82;21235;-62
2021/05/03 10:17:48;;;;;;;2.47;2.00;;;;;;;14.54;43.27;96429.05;1707788;83;21209;-63
2021/05/03 10:20:19;;;;;;;2.75;2.40;;;;;;;14.77;42.39;96432.24;1712511;82;21669;-62
2021/05/03 10:22:53;;;;;;;3.37;2.90;;;;;;;14.95;42.03;96427.14;1710294;82;21451;-61
2021/05/03 10:25:21;;;;;;;3.37;3.08;;;;;;;15.18;42.40;96432.03;1712582;83;21634;-62
2021/05/03 10:27:50;;;;;;;5.17;2.63;;;;;;;15.46;41.21;96427.72;1711110;82;21675;-61
2021/05/03 10:30:25;;;;;;;3.75;2.17;;;;;;;15.61;39.55;96425.47;1686858;83;21630;-61
2021/05/03 10:33:09;;;;;;;2.80;2.05;;;;;;;15.71;39.81;96444.55;1713630;82;21122;-62
2021/05/03 10:35:48;;;;;;;4.05;1.70;;;;;;;15.90;39.45;96438.42;1710273;82;21387;-60
2021/05/03 10:38:37;;;;;;;2.10;1.60;;;;;;;16.22;39.25;96427.16;1710310;82;21219;-62
2021/05/03 10:41:28;;;;;;;1.98;1.80;;;;;;;16.30;38.17;96439.03;1711228;83;26388;-61
2021/05/03 10:44:34;;;;;;;1.80;1.70;;;;;;;16.10;38.17;96438.33;1680919;84;21093;-62
2021/05/03 10:47:22;;;;;;;1.72;1.32;;;;;;;15.92;38.38;96436.51;1628571;86;21637;-61
2021/05/03 10:49:50;;;;;;;1.45;1.35;;;;;;;15.95;39.02;96437.53;1611059;87;21197;-61
2021/05/03 10:52:33;;;;;;;1.72;1.62;;;;;;;16.10;38.96;96436.55;1620077;87;21140;-60
2021/05/03 10:55:01;;;;;;;1.32;1.22;;;;;;;16.13;38.34;96434.11;1668543;85;21539;-61
2021/05/03 10:57:32;;;;;;;1.22;1.15;;;;;;;16.10;37.83;96431.78;1666711;84;21540;-61
2021/05/03 11:00:00;;;;;;;1.62;1.35;;;;;;;16.11;37.89;96439.98;1672546;84;21187;-61
2021/05/03 11:02:44;;;;;;;4.30;1.80;;;;;;;16.15;37.37;96438.25;1666202;85;26202;-61
2021/05/03 11:05:25;;;;;;;1.32;1.10;;;;;;;16.10;36.97;96435.25;1669074;85;21099;-61
2021/05/03 11:08:10;;;;;;;1.40;1.30;;;;;;;15.91;37.02;96436.66;1664487;85;21080;-61
2021/05/03 11:11:02;;;;;;;1.22;1.12;;;;;;;15.63;37.51;96441.83;1668912;84;21100;-62
2021/05/03 11:13:52;;;;;;;1.27;1.17;;;;;;;15.42;38.03;96445.95;1659530;84;21076;-61
2021/05/03 11:16:33;;;;;;;1.37;1.27;;;;;;;15.23;38.36;96442.89;1663861;85;21637;-61
2021/05/03 11:19:24;;;;;;;1.98;1.10;;;;;;;15.11;38.85;96449.25;1667620;85;21103;-61
2021/05/03 11:21:51;;;;;;;2.25;1.20;;;;;;;15.14;38.99;96441.14;1648749;84;21657;-59
2021/05/03 11:24:49;;;;;;;1.00;1.00;;;;;;;15.20;38.96;96439.27;1663575;84;22380;-61
2021/05/03 11:27:02;;;;;;;3.15;1.10;;;;;;;15.26;38.78;96444.77;1661537;85;21143;-61
2021/05/03 11:29:36;;;;;;;1.60;1.50;;;;;;;15.27;38.46;96450.31;1669134;84;21269;-59
2021/05/03 11:31:59;;;;;;;1.30;1.20;;;;;;;15.27;38.46;96449.50;1667324;85;21490;-60
2021/05/03 11:34:42;;;;;;;2.67;1.27;;;;;;;15.34;38.81;96454.98;1661992;85;21480;-62
2021/05/03 11:40:06;;;;;;;1.20;1.00;;;;;;;15.34;37.78;96448.45;1874337;75;28067;-61
2021/05/03 11:45:14;;;;;;;1.85;1.05;;;;;;;15.36;37.32;96447.81;1815612;77;22730;-61
2021/05/03 11:47:42;;;;;;;2.77;1.20;;;;;;;15.44;37.04;96434.86;1848758;77;21061;-61
2021/05/03 11:50:17;;;;;;;0.82;0.82;;;;;;;15.44;37.25;96444.86;1843563;77;21105;-60
2021/05/03 11:52:44;;;;;;;1.30;1.20;;;;;;;15.49;36.13;96438.36;1847975;77;21462;-61
2021/05/03 11:55:16;;;;;;;1.00;0.90;;;;;;;15.28;35.97;96429.75;1846301;77;21541;-60
2021/05/03 11:57:45;;;;;;;6.12;1.67;;;;;;;15.22;36.94;96430.80;1845482;77;22190;-60
2021/05/03 12:00:20;;;;;;;3.72;2.30;;;;;;;15.43;37.21;96426.20;1770738;79;20981;-60
2021/05/03 12:03:05;;;;;;;2.87;1.20;;;;;;;15.70;36.39;96429.00;1794858;79;20931;-61
2021/05/03 12:05:35;;;;;;;0.90;0.90;;;;;;;15.80;35.91;96425.87;1805709;79;21478;-60
2021/05/03 12:08:14;;;;;;;1.17;1.07;;;;;;;15.88;35.86;96423.36;1768555;80;21149;-60